SARS/PRQ METAR and TAF weather

Enter ICAO airport designator
Station Type Date Time Source
SARS METAR 2019/04/17 08:54 UTC NOAA

SARS 170854Z 00000KT 0600 FG 14/14 Q1011


Station Type Date Time Source
SARS Decoded METAR 2019/04/17 08:54 UTC NOAA

Presidencia Roque Saenz Pena Aerodrome, Argentina (SARS) 26-49S 060-27W 92M
Apr 17, 2019 - 04:54 AM EDT / 2019.04.17 0854 UTC
Wind: Calm:0
Visibility: less than 1 mile:0
Weather: fog
Temperature: 57 F (14 C)
Dew Point: 57 F (14 C)
Relative Humidity: 100%
Pressure (altimeter): 29.85 in. Hg (1011 hPa)
ob: SARS 170854Z 00000KT 0600 FG 14/14 Q1011
cycle: 9

Station Type Date Time Source
SARS TAF UTC NOAA

Error!

Example: see airport list